Dassault Falcon 50 from Portuguese Air Force at Funchal.
 Regi:17402  LARGER
 MSN Year:198 1989
 Date of picture:2019-05-22 15:16
 Position:05
 Flight:
 Logs: 497C72 17402 --- 2019-05-22 15:48:06 Falcon 50 Portugal Esq 504 Leiria, PT 5126 34000
 Notam LPMA A1836/19 International 05/22/2019 0902 05/22/2019 1700 GRASS CUTTING ALONG RWY 05/23 STRIPS. MEN AND EQUIPMENT UNDER TOWER CONTROL AND AERODROME AUTHORITY SUPERVISION.
 Metar 22/05/2019 15:00 METAR LPMA 221500Z 04015KT 9999 FEW016 22/14 Q1021=
 Hits: 42 ID: 2300

Debriefing: Photographed movements of Airports in NW-Europe.
The images of our site attendant is in authorisation from Queen of Sky.
Copying of images of this site have been prohibited in which manner without the authorisation of the photographer.
In behalf of the crew :"Thank you visiting us" - Contact
Factsheets Dassault, Falcon 50, Portuguese Air Force, made by De Plane! © 2006 - 2022 All rights reserved


.